sensor_id;sensor_type;location;lat;lon;timestamp;pressure;altitude;pressure_sealevel;temperature;humidity
4012;BME280;2020;48.682;9.024;2022-10-15T00:00:31;95811.91;;;12.13;100.00
4012;BME280;2020;48.682;9.024;2022-10-15T00:02:57;95812.69;;;12.14;100.00
4012;BME280;2020;48.682;9.024;2022-10-15T00:05:22;95806.50;;;12.15;100.00
4012;BME280;2020;48.682;9.024;2022-10-15T00:07:48;95807.75;;;12.19;100.00
4012;BME280;2020;48.682;9.024;2022-10-15T00:10:14;95816.75;;;12.17;100.00
4012;BME280;2020;48.682;9.024;2022-10-15T00:12:40;95795.69;;;12.18;100.00
4012;BME280;2020;48.682;9.024;2022-10-15T00:15:06;95803.53;;;12.18;100.00
4012;BME280;2020;48.682;9.024;2022-10-15T00:17:32;95802.78;;;12.24;100.00
4012;BME280;2020;48.682;9.024;2022-10-15T00:19:58;95807.03;;;12.25;100.00
4012;BME280;2020;48.682;9.024;2022-10-15T00:22:23;95808.00;;;12.24;100.00
4012;BME280;2020;48.682;9.024;2022-10-15T00:24:49;95805.78;;;12.21;100.00
4012;BME280;2020;48.682;9.024;2022-10-15T00:27:14;95799.56;;;12.22;100.00
4012;BME280;2020;48.682;9.024;2022-10-15T00:29:39;95805.78;;;12.21;100.00
4012;BME280;2020;48.682;9.024;2022-10-15T00:32:05;95810.00;;;12.22;100.00
4012;BME280;2020;48.682;9.024;2022-10-15T00:34:30;95805.59;;;12.23;100.00
4012;BME280;2020;48.682;9.024;2022-10-15T00:36:55;95808.84;;;12.25;100.00
4012;BME280;2020;48.682;9.024;2022-10-15T00:39:20;95810.63;;;12.24;100.00
4012;BME280;2020;48.682;9.024;2022-10-15T00:41:46;95805.25;;;12.26;100.00
4012;BME280;2020;48.682;9.024;2022-10-15T00:46:47;95804.41;;;12.25;100.00
4012;BME280;2020;48.682;9.024;2022-10-15T00:49:20;95798.41;;;12.25;100.00
4012;BME280;2020;48.682;9.024;2022-10-15T00:51:51;95790.00;;;12.29;100.00
4012;BME280;2020;48.682;9.024;2022-10-15T00:54:19;95790.00;;;12.29;100.00
4012;BME280;2020;48.682;9.024;2022-10-15T00:56:45;95800.44;;;12.29;100.00
4012;BME280;2020;48.682;9.024;2022-10-15T00:59:13;95794.25;;;12.31;100.00
4012;BME280;2020;48.682;9.024;2022-10-15T01:01:40;95796.06;;;12.30;100.00
4012;BME280;2020;48.682;9.024;2022-10-15T01:04:07;95790.00;;;12.29;100.00
4012;BME280;2020;48.682;9.024;2022-10-15T01:06:32;95782.81;;;12.32;100.00
4012;BME280;2020;48.682;9.024;2022-10-15T01:08:58;95785.41;;;12.32;100.00
4012;BME280;2020;48.682;9.024;2022-10-15T01:11:41;95778.41;;;12.32;100.00
4012;BME280;2020;48.682;9.024;2022-10-15T01:16:47;95770.22;;;12.35;100.00
4012;BME280;2020;48.682;9.024;2022-10-15T01:22:04;95769.59;;;12.33;100.00
4012;BME280;2020;48.682;9.024;2022-10-15T01:27:30;95770.03;;;12.37;100.00
4012;BME280;2020;48.682;9.024;2022-10-15T01:30:10;95769.03;;;12.38;100.00
4012;BME280;2020;48.682;9.024;2022-10-15T01:35:26;95760.56;;;12.36;100.00
4012;BME280;2020;48.682;9.024;2022-10-15T01:38:21;95766.78;;;12.35;100.00
4012;BME280;2020;48.682;9.024;2022-10-15T01:44:06;95761.19;;;12.38;100.00
4012;BME280;2020;48.682;9.024;2022-10-15T01:46:42;95759.41;;;12.38;100.00
4012;BME280;2020;48.682;9.024;2022-10-15T01:49:12;95758.22;;;12.41;100.00
4012;BME280;2020;48.682;9.024;2022-10-15T01:51:39;95749.22;;;12.43;100.00
4012;BME280;2020;48.682;9.024;2022-10-15T01:54:10;95754.88;;;12.47;100.00
4012;BME280;2020;48.682;9.024;2022-10-15T01:56:37;95742.03;;;12.46;100.00
4012;BME280;2020;48.682;9.024;2022-10-15T01:59:04;95753.63;;;12.43;100.00
4012;BME280;2020;48.682;9.024;2022-10-15T02:01:30;95745.63;;;12.45;100.00
4012;BME280;2020;48.682;9.024;2022-10-15T02:03:55;95755.69;;;12.48;100.00
4012;BME280;2020;48.682;9.024;2022-10-15T02:06:33;95749.47;;;12.49;100.00
4012;BME280;2020;48.682;9.024;2022-10-15T02:11:30;95753.75;;;12.56;100.00
4012;BME280;2020;48.682;9.024;2022-10-15T02:14:08;95745.31;;;12.54;100.00
4012;BME280;2020;48.682;9.024;2022-10-15T02:16:55;95756.56;;;12.55;100.00
4012;BME280;2020;48.682;9.024;2022-10-15T02:19:38;95754.97;;;12.54;100.00
4012;BME280;2020;48.682;9.024;2022-10-15T02:22:12;95746.94;;;12.55;100.00
4012;BME280;2020;48.682;9.024;2022-10-15T02:25:05;95753.75;;;12.56;100.00
4012;BME280;2020;48.682;9.024;2022-10-15T02:27:32;95751.78;;;12.58;100.00
4012;BME280;2020;48.682;9.024;2022-10-15T02:30:02;95751.44;;;12.62;100.00
4012;BME280;2020;48.682;9.024;2022-10-15T02:32:30;95756.66;;;12.62;100.00
4012;BME280;2020;48.682;9.024;2022-10-15T02:34:57;95756.66;;;12.62;100.00
4012;BME280;2020;48.682;9.024;2022-10-15T02:37:24;95760.25;;;12.61;100.00
4012;BME280;2020;48.682;9.024;2022-10-15T02:39:50;95766.72;;;12.65;100.00
4012;BME280;2020;48.682;9.024;2022-10-15T02:42:16;95765.72;;;12.66;100.00
4012;BME280;2020;48.682;9.024;2022-10-15T02:44:42;95760.13;;;12.69;100.00
4012;BME280;2020;48.682;9.024;2022-10-15T02:47:07;95769.75;;;12.68;100.00
4012;BME280;2020;48.682;9.024;2022-10-15T02:49:33;95767.97;;;12.69;100.00
4012;BME280;2020;48.682;9.024;2022-10-15T02:51:59;95767.59;;;12.72;100.00
4012;BME280;2020;48.682;9.024;2022-10-15T02:54:24;95767.59;;;12.72;100.00
4012;BME280;2020;48.682;9.024;2022-10-15T02:56:49;95761.56;;;12.71;100.00
4012;BME280;2020;48.682;9.024;2022-10-15T02:59:15;95774.44;;;12.73;100.00
4012;BME280;2020;48.682;9.024;2022-10-15T03:01:40;95772.06;;;12.78;100.00
4012;BME280;2020;48.682;9.024;2022-10-15T03:04:05;95772.88;;;12.79;100.00
4012;BME280;2020;48.682;9.024;2022-10-15T03:06:30;95771.50;;;12.83;100.00
4012;BME280;2020;48.682;9.024;2022-10-15T03:08:56;95771.34;;;12.84;100.00
4012;BME280;2020;48.682;9.024;2022-10-15T03:11:21;95775.34;;;12.87;100.00
4012;BME280;2020;48.682;9.024;2022-10-15T03:13:46;95773.56;;;12.87;100.00
4012;BME280;2020;48.682;9.024;2022-10-15T03:16:12;95777.44;;;12.92;100.00
4012;BME280;2020;48.682;9.024;2022-10-15T03:18:37;95774.19;;;12.90;100.00
4012;BME280;2020;48.682;9.024;2022-10-15T03:21:03;95777.06;;;12.95;100.00
4012;BME280;2020;48.682;9.024;2022-10-15T03:23:29;95771.81;;;12.95;100.00
4012;BME280;2020;48.682;9.024;2022-10-15T03:25:54;95773.44;;;12.96;100.00
4012;BME280;2020;48.682;9.024;2022-10-15T03:28:20;95775.44;;;12.94;100.00
4012;BME280;2020;48.682;9.024;2022-10-15T03:30:46;95769.00;;;12.96;100.00
4012;BME280;2020;48.682;9.024;2022-10-15T03:33:12;95774.69;;;13.00;100.00
4012;BME280;2020;48.682;9.024;2022-10-15T03:35:37;95776.31;;;13.01;100.00
4012;BME280;2020;48.682;9.024;2022-10-15T03:38:04;95779.91;;;13.00;100.00
4012;BME280;2020;48.682;9.024;2022-10-15T03:40:30;95781.16;;;13.04;100.00
4012;BME280;2020;48.682;9.024;2022-10-15T03:42:55;95783.13;;;13.02;100.00
4012;BME280;2020;48.682;9.024;2022-10-15T03:45:21;95787.63;;;13.08;100.00
4012;BME280;2020;48.682;9.024;2022-10-15T03:47:46;95792.84;;;13.08;100.00
4012;BME280;2020;48.682;9.024;2022-10-15T03:50:12;95794.84;;;13.06;100.00
4012;BME280;2020;48.682;9.024;2022-10-15T03:52:38;95794.47;;;13.09;100.00
4012;BME280;2020;48.682;9.024;2022-10-15T03:55:05;95800.47;;;13.10;100.00
4012;BME280;2020;48.682;9.024;2022-10-15T03:57:30;95800.94;;;13.13;100.00
4012;BME280;2020;48.682;9.024;2022-10-15T03:59:56;95807.16;;;13.12;100.00
4012;BME280;2020;48.682;9.024;2022-10-15T04:02:21;95805.53;;;13.11;100.00
4012;BME280;2020;48.682;9.024;2022-10-15T04:04:46;95811.38;;;13.13;100.00
4012;BME280;2020;48.682;9.024;2022-10-15T04:07:12;95807.75;;;13.14;100.00
4012;BME280;2020;48.682;9.024;2022-10-15T04:09:37;95805.16;;;13.14;100.00
4012;BME280;2020;48.682;9.024;2022-10-15T04:12:03;95802.53;;;13.14;100.00
4012;BME280;2020;48.682;9.024;2022-10-15T04:14:28;95818.22;;;13.14;100.00
4012;BME280;2020;48.682;9.024;2022-10-15T04:16:54;95806.16;;;13.13;100.00
4012;BME280;2020;48.682;9.024;2022-10-15T04:19:19;95814.00;;;13.13;100.00
4012;BME280;2020;48.682;9.024;2022-10-15T04:21:45;95806.94;;;13.14;100.00
4012;BME280;2020;48.682;9.024;2022-10-15T04:24:10;95805.94;;;13.15;100.00
4012;BME280;2020;48.682;9.024;2022-10-15T04:26:35;95811.38;;;13.13;100.00
4012;BME280;2020;48.682;9.024;2022-10-15T04:29:01;95818.59;;;13.11;100.00
4012;BME280;2020;48.682;9.024;2022-10-15T04:31:26;95808.16;;;13.11;100.00
4012;BME280;2020;48.682;9.024;2022-10-15T04:33:51;95808.16;;;13.11;100.00
4012;BME280;2020;48.682;9.024;2022-10-15T04:36:16;95821.38;;;13.10;100.00
4012;BME280;2020;48.682;9.024;2022-10-15T04:38:42;95826.59;;;13.10;100.00
4012;BME280;2020;48.682;9.024;2022-10-15T04:41:09;95825.44;;;13.12;100.00
4012;BME280;2020;48.682;9.024;2022-10-15T04:43:35;95827.44;;;13.10;100.00
4012;BME280;2020;48.682;9.024;2022-10-15T04:46:02;95821.22;;;13.11;100.00
4012;BME280;2020;48.682;9.024;2022-10-15T04:48:29;95827.06;;;13.13;100.00
4012;BME280;2020;48.682;9.024;2022-10-15T04:50:55;95835.88;;;13.12;100.00
4012;BME280;2020;48.682;9.024;2022-10-15T04:53:26;95830.22;;;13.09;100.00
4012;BME280;2020;48.682;9.024;2022-10-15T04:55:51;95813.75;;;13.08;100.00
4012;BME280;2020;48.682;9.024;2022-10-15T04:58:17;95812.13;;;13.07;100.00
4012;BME280;2020;48.682;9.024;2022-10-15T05:00:42;95811.38;;;13.13;100.00
4012;BME280;2020;48.682;9.024;2022-10-15T05:03:07;95824.59;;;13.12;100.00
4012;BME280;2020;48.682;9.024;2022-10-15T05:05:32;95829.03;;;13.11;100.00
4012;BME280;2020;48.682;9.024;2022-10-15T05:08:02;95831.03;;;13.09;100.00
4012;BME280;2020;48.682;9.024;2022-10-15T05:10:28;95832.41;;;13.05;100.00
4012;BME280;2020;48.682;9.024;2022-10-15T05:12:53;95836.63;;;13.06;100.00
4012;BME280;2020;48.682;9.024;2022-10-15T05:15:19;95853.09;;;13.07;100.00
4012;BME280;2020;48.682;9.024;2022-10-15T05:17:44;95853.91;;;13.07;100.00
4012;BME280;2020;48.682;9.024;2022-10-15T05:20:10;95855.91;;;13.05;100.00
4012;BME280;2020;48.682;9.024;2022-10-15T05:22:35;95856.28;;;13.02;100.00
4012;BME280;2020;48.682;9.024;2022-10-15T05:25:00;95858.53;;;13.05;100.00
4012;BME280;2020;48.682;9.024;2022-10-15T05:27:25;95856.28;;;13.02;100.00
4012;BME280;2020;48.682;9.024;2022-10-15T05:29:51;95855.47;;;13.01;100.00
4012;BME280;2020;48.682;9.024;2022-10-15T05:32:16;95866.72;;;13.02;100.00
4012;BME280;2020;48.682;9.024;2022-10-15T05:34:41;95878.78;;;13.03;100.00
4012;BME280;2020;48.682;9.024;2022-10-15T05:37:06;95875.19;;;13.04;100.00
4012;BME280;2020;48.682;9.024;2022-10-15T05:39:32;95884.81;;;13.04;100.00
4012;BME280;2020;48.682;9.024;2022-10-15T05:41:57;95886.00;;;13.01;100.00
4012;BME280;2020;48.682;9.024;2022-10-15T05:44:22;95887.63;;;13.02;100.00
4012;BME280;2020;48.682;9.024;2022-10-15T05:46:47;95887.63;;;13.02;100.00
4012;BME280;2020;48.682;9.024;2022-10-15T05:49:13;95881.53;;;12.95;100.00
4012;BME280;2020;48.682;9.024;2022-10-15T05:51:38;95892.34;;;12.92;100.00
4012;BME280;2020;48.682;9.024;2022-10-15T05:54:03;95890.53;;;12.92;100.00
4012;BME280;2020;48.682;9.024;2022-10-15T05:56:29;95887.13;;;12.92;100.00
4012;BME280;2020;48.682;9.024;2022-10-15T05:58:54;95893.50;;;12.89;100.00
4012;BME280;2020;48.682;9.024;2022-10-15T06:01:19;95894.69;;;12.86;100.00
4012;BME280;2020;48.682;9.024;2022-10-15T06:03:45;95897.09;;;12.88;100.00
4012;BME280;2020;48.682;9.024;2022-10-15T06:06:24;95898.31;;;12.85;100.00
4012;BME280;2020;48.682;9.024;2022-10-15T06:08:53;95902.69;;;12.85;100.00
4012;BME280;2020;48.682;9.024;2022-10-15T06:11:19;95898.66;;;12.82;100.00
4012;BME280;2020;48.682;9.024;2022-10-15T06:13:45;95896.69;;;12.84;100.00
4012;BME280;2020;48.682;9.024;2022-10-15T06:16:13;95904.69;;;12.83;100.00
4012;BME280;2020;48.682;9.024;2022-10-15T06:18:38;95903.53;;;12.85;100.00
4012;BME280;2020;48.682;9.024;2022-10-15T06:21:05;95908.75;;;12.85;100.00
4012;BME280;2020;48.682;9.024;2022-10-15T06:23:31;95917.56;;;12.84;100.00
4012;BME280;2020;48.682;9.024;2022-10-15T06:26:00;95926.41;;;12.83;100.00
4012;BME280;2020;48.682;9.024;2022-10-15T06:28:26;95928.03;;;12.84;100.00
4012;BME280;2020;48.682;9.024;2022-10-15T06:30:51;95935.22;;;12.82;100.00
4012;BME280;2020;48.682;9.024;2022-10-15T06:33:16;95938.47;;;12.84;100.00
4012;BME280;2020;48.682;9.024;2022-10-15T06:35:41;95940.09;;;12.85;100.00
4012;BME280;2020;48.682;9.024;2022-10-15T06:38:07;95950.91;;;12.82;100.00
4012;BME280;2020;48.682;9.024;2022-10-15T06:40:32;95946.94;;;12.86;100.00
4012;BME280;2020;48.682;9.024;2022-10-15T06:43:05;95949.34;;;12.88;100.00
4012;BME280;2020;48.682;9.024;2022-10-15T06:45:33;95948.56;;;12.87;100.00
4012;BME280;2020;48.682;9.024;2022-10-15T06:48:00;95957.38;;;12.86;100.00
4012;BME280;2020;48.682;9.024;2022-10-15T06:50:25;95960.63;;;12.89;100.00
4012;BME280;2020;48.682;9.024;2022-10-15T06:52:51;95971.31;;;12.94;100.00
4012;BME280;2020;48.682;9.024;2022-10-15T06:55:16;95973.56;;;12.97;100.00
4012;BME280;2020;48.682;9.024;2022-10-15T06:57:41;95974.94;;;12.93;100.00
4012;BME280;2020;48.682;9.024;2022-10-15T07:00:07;95980.78;;;12.95;100.00
4012;BME280;2020;48.682;9.024;2022-10-15T07:02:34;95983.38;;;12.95;100.00
4012;BME280;2020;48.682;9.024;2022-10-15T07:05:00;95987.63;;;12.96;100.00
4012;BME280;2020;48.682;9.024;2022-10-15T07:07:25;95998.06;;;12.96;100.00
4012;BME280;2020;48.682;9.024;2022-10-15T07:09:50;95992.47;;;12.99;100.00
4012;BME280;2020;48.682;9.024;2022-10-15T07:12:17;95993.47;;;12.98;100.00
4012;BME280;2020;48.682;9.024;2022-10-15T07:14:45;95994.47;;;12.97;100.00
4012;BME280;2020;48.682;9.024;2022-10-15T07:17:11;95996.88;;;12.98;100.00
4012;BME280;2020;48.682;9.024;2022-10-15T07:19:36;95993.75;;;13.03;100.00
4012;BME280;2020;48.682;9.024;2022-10-15T07:22:01;95991.13;;;13.03;100.00
4012;BME280;2020;48.682;9.024;2022-10-15T07:24:27;96000.22;;;13.07;100.00
4012;BME280;2020;48.682;9.024;2022-10-15T07:26:52;96004.63;;;13.07;100.00
4012;BME280;2020;48.682;9.024;2022-10-15T07:29:17;95996.97;;;13.05;100.00
4012;BME280;2020;48.682;9.024;2022-10-15T07:31:42;96008.31;;;13.12;100.00
4012;BME280;2020;48.682;9.024;2022-10-15T07:34:08;96006.34;;;13.14;100.00
4012;BME280;2020;48.682;9.024;2022-10-15T07:36:33;95999.41;;;13.07;100.00
4012;BME280;2020;48.682;9.024;2022-10-15T07:38:58;96007.84;;;13.09;100.00
4012;BME280;2020;48.682;9.024;2022-10-15T07:41:24;96002.63;;;13.09;100.00
4012;BME280;2020;48.682;9.024;2022-10-15T07:43:50;96003.88;;;13.13;100.00
4012;BME280;2020;48.682;9.024;2022-10-15T07:46:16;96011.19;;;13.18;100.00
4012;BME280;2020;48.682;9.024;2022-10-15T07:48:41;96009.22;;;13.20;100.00
4012;BME280;2020;48.682;9.024;2022-10-15T07:51:09;96007.22;;;13.22;100.00
4012;BME280;2020;48.682;9.024;2022-10-15T07:53:34;96016.06;;;13.21;100.00
4012;BME280;2020;48.682;9.024;2022-10-15T07:56:01;96020.91;;;13.24;100.00
4012;BME280;2020;48.682;9.024;2022-10-15T07:58:28;96013.69;;;13.26;100.00
4012;BME280;2020;48.682;9.024;2022-10-15T08:00:54;96014.59;;;13.33;100.00
4012;BME280;2020;48.682;9.024;2022-10-15T08:03:20;96023.06;;;13.35;100.00
4012;BME280;2020;48.682;9.024;2022-10-15T08:05:45;96028.28;;;13.35;100.00
4012;BME280;2020;48.682;9.024;2022-10-15T08:08:10;96035.13;;;13.36;100.00
4012;BME280;2020;48.682;9.024;2022-10-15T08:10:36;96035.13;;;13.36;100.00
4012;BME280;2020;48.682;9.024;2022-10-15T08:13:01;96032.72;;;13.35;100.00
4012;BME280;2020;48.682;9.024;2022-10-15T08:15:26;96029.91;;;13.36;100.00
4012;BME280;2020;48.682;9.024;2022-10-15T08:17:52;96028.66;;;13.32;100.00
4012;BME280;2020;48.682;9.024;2022-10-15T08:20:17;96022.25;;;13.35;100.00
4012;BME280;2020;48.682;9.024;2022-10-15T08:22:42;96022.69;;;13.38;100.00
4012;BME280;2020;48.682;9.024;2022-10-15T08:25:08;96012.22;;;13.38;100.00
4012;BME280;2020;48.682;9.024;2022-10-15T08:27:33;96013.50;;;13.42;100.00
4012;BME280;2020;48.682;9.024;2022-10-15T08:29:58;96014.75;;;13.47;100.00
4012;BME280;2020;48.682;9.024;2022-10-15T08:32:24;96012.50;;;13.58;100.00
4012;BME280;2020;48.682;9.024;2022-10-15T08:34:49;96016.16;;;13.64;100.00
4012;BME280;2020;48.682;9.024;2022-10-15T08:37:14;96018.50;;;13.59;100.00
4012;BME280;2020;48.682;9.024;2022-10-15T08:39:39;96026.69;;;13.71;100.00
4012;BME280;2020;48.682;9.024;2022-10-15T08:42:13;96030.59;;;13.60;100.00
4012;BME280;2020;48.682;9.024;2022-10-15T08:44:45;96026.97;;;13.61;100.00
4012;BME280;2020;48.682;9.024;2022-10-15T08:47:32;96032.72;;;13.71;100.00
4012;BME280;2020;48.682;9.024;2022-10-15T08:50:01;96034.09;;;13.89;100.00
4012;BME280;2020;48.682;9.024;2022-10-15T08:52:43;96038.31;;;13.90;100.00
4012;BME280;2020;48.682;9.024;2022-10-15T08:55:16;96046.44;;;13.95;100.00
4012;BME280;2020;48.682;9.024;2022-10-15T08:58:11;96041.84;;;13.97;100.00
4012;BME280;2020;48.682;9.024;2022-10-15T09:00:57;96048.69;;;13.98;100.00
4012;BME280;2020;48.682;9.024;2022-10-15T09:06:18;96036.59;;;13.97;100.00
4012;BME280;2020;48.682;9.024;2022-10-15T09:08:50;96046.50;;;14.02;100.00
4012;BME280;2020;48.682;9.024;2022-10-15T09:14:09;96043.59;;;14.12;100.00
4012;BME280;2020;48.682;9.024;2022-10-15T09:16:38;96033.78;;;14.21;100.00
4012;BME280;2020;48.682;9.024;2022-10-15T09:19:12;96049.78;;;14.32;100.00
4012;BME280;2020;48.682;9.024;2022-10-15T09:21:39;96049.41;;;14.36;100.00
4012;BME280;2020;48.682;9.024;2022-10-15T09:24:05;96045.41;;;14.40;100.00
4012;BME280;2020;48.682;9.024;2022-10-15T09:26:50;96063.16;;;14.44;100.00
4012;BME280;2020;48.682;9.024;2022-10-15T09:29:29;96061.53;;;14.43;100.00
4012;BME280;2020;48.682;9.024;2022-10-15T09:32:19;96057.59;;;14.54;100.00
4012;BME280;2020;48.682;9.024;2022-10-15T09:35:00;96062.50;;;14.93;100.00
4012;BME280;2020;48.682;9.024;2022-10-15T09:37:45;96072.69;;;15.09;100.00
4012;BME280;2020;48.682;9.024;2022-10-15T09:40:27;96062.97;;;15.38;100.00
4012;BME280;2020;48.682;9.024;2022-10-15T09:42:58;96066.25;;;15.54;100.00
4012;BME280;2020;48.682;9.024;2022-10-15T09:45:24;96074.41;;;15.30;100.00
4012;BME280;2020;48.682;9.024;2022-10-15T09:47:50;96073.28;;;15.11;100.00
4012;BME280;2020;48.682;9.024;2022-10-15T09:50:16;96073.28;;;15.11;100.00
4012;BME280;2020;48.682;9.024;2022-10-15T09:52:52;96083.31;;;15.01;100.00
4012;BME280;2020;48.682;9.024;2022-10-15T09:58:09;96078.34;;;15.13;100.00
4012;BME280;2020;48.682;9.024;2022-10-15T10:01:01;96079.47;;;15.32;100.00
4012;BME280;2020;48.682;9.024;2022-10-15T10:03:30;96075.69;;;15.41;99.58
4012;BME280;2020;48.682;9.024;2022-10-15T10:06:14;96091.75;;;15.87;99.72
4012;BME280;2020;48.682;9.024;2022-10-15T10:11:15;96093.78;;;15.85;97.20
4012;BME280;2020;48.682;9.024;2022-10-15T10:16:15;96099.09;;;15.91;97.52
4012;BME280;2020;48.682;9.024;2022-10-15T10:18:41;96106.25;;;15.69;92.83
4012;BME280;2020;48.682;9.024;2022-10-15T10:21:22;96099.09;;;15.98;95.05
4012;BME280;2020;48.682;9.024;2022-10-15T10:23:48;96105.13;;;15.92;91.32
4012;BME280;2020;48.682;9.024;2022-10-15T10:26:13;96093.47;;;16.15;92.03
4012;BME280;2020;48.682;9.024;2022-10-15T10:28:47;96095.06;;;16.16;89.96
4012;BME280;2020;48.682;9.024;2022-10-15T10:31:14;96108.03;;;16.51;91.13
4012;BME280;2020;48.682;9.024;2022-10-15T10:33:49;96110.06;;;16.89;86.58
4012;BME280;2020;48.682;9.024;2022-10-15T10:36:25;96105.16;;;17.27;92.78
4012;BME280;2020;48.682;9.024;2022-10-15T10:39:04;96107.56;;;17.42;
4012;BME280;2020;48.682;9.024;2022-10-15T10:42:00;96107.72;;;17.99;87.19
4012;BME280;2020;48.682;9.024;2022-10-15T10:44:37;96103.63;;;18.10;86.56
4012;BME280;2020;48.682;9.024;2022-10-15T10:47:20;96111.56;;;17.44;81.68
4012;BME280;2020;48.682;9.024;2022-10-15T10:49:51;96112.06;;;16.94;83.31
4012;BME280;2020;48.682;9.024;2022-10-15T10:52:31;96118.53;;;16.85;85.63
4012;BME280;2020;48.682;9.024;2022-10-15T10:55:00;96108.66;;;16.66;85.17
4012;BME280;2020;48.682;9.024;2022-10-15T10:58:03;96112.09;;;16.60;85.85
4012;BME280;2020;48.682;9.024;2022-10-15T11:00:37;96105.19;;;16.32;83.49
4012;BME280;2020;48.682;9.024;2022-10-15T11:03:04;96104.78;;;16.35;83.82
4012;BME280;2020;48.682;9.024;2022-10-15T11:05:32;96110.06;;;16.49;83.47
4012;BME280;2020;48.682;9.024;2022-10-15T11:08:17;96103.38;;;16.53;83.91
4012;BME280;2020;48.682;9.024;2022-10-15T11:14:12;96108.47;;;16.61;83.00
4012;BME280;2020;48.682;9.024;2022-10-15T11:19:06;96093.91;;;16.59;83.33
4012;BME280;2020;48.682;9.024;2022-10-15T11:21:53;96090.66;;;16.43;82.43
4012;BME280;2020;48.682;9.024;2022-10-15T11:24:28;96091.06;;;16.33;80.95
4012;BME280;2020;48.682;9.024;2022-10-15T11:29:48;96099.13;;;16.25;81.48
4012;BME280;2020;48.682;9.024;2022-10-15T11:32:51;96099.94;;;16.19;81.23
4012;BME280;2020;48.682;9.024;2022-10-15T11:35:28;96101.34;;;16.15;83.58
4012;BME280;2020;48.682;9.024;2022-10-15T11:38:08;96103.16;;;16.21;84.53
4012;BME280;2020;48.682;9.024;2022-10-15T11:52:22;96082.97;;;16.42;80.08
4012;BME280;2020;48.682;9.024;2022-10-15T11:55:03;96069.66;;;16.63;79.48
4012;BME280;2020;48.682;9.024;2022-10-15T11:57:34;96072.09;;;16.58;79.74
4012;BME280;2020;48.682;9.024;2022-10-15T12:00:15;96051.88;;;16.65;78.18
4012;BME280;2020;48.682;9.024;2022-10-15T12:02:44;96068.84;;;16.63;77.46
4012;BME280;2020;48.682;9.024;2022-10-15T12:05:18;96071.69;;;16.61;79.79
4012;BME280;2020;48.682;9.024;2022-10-15T12:07:48;96069.22;;;16.53;77.56
4012;BME280;2020;48.682;9.024;2022-10-15T12:13:25;96053.28;;;16.28;79.03
4012;BME280;2020;48.682;9.024;2022-10-15T12:16:10;96050.25;;;16.37;80.68
4012;BME280;2020;48.682;9.024;2022-10-15T12:18:50;96054.69;;;16.44;80.71
4012;BME280;2020;48.682;9.024;2022-10-15T12:21:30;96049.25;;;16.18;83.81
4012;BME280;2020;48.682;9.024;2022-10-15T12:23:56;96055.06;;;16.00;84.84
4012;BME280;2020;48.682;9.024;2022-10-15T12:26:27;96049.78;;;15.87;85.88
4012;BME280;2020;48.682;9.024;2022-10-15T12:28:56;96059.09;;;15.96;90.12
4012;BME280;2020;48.682;9.024;2022-10-15T12:31:22;96054.47;;;15.98;92.01
4012;BME280;2020;48.682;9.024;2022-10-15T12:33:53;96056.66;;;15.88;90.20
4012;BME280;2020;48.682;9.024;2022-10-15T12:39:20;96052.59;;;15.78;88.86
4012;BME280;2020;48.682;9.024;2022-10-15T12:41:47;96048.50;;;15.56;88.21
4012;BME280;2020;48.682;9.024;2022-10-15T12:44:29;96056.16;;;15.50;87.24
4012;BME280;2020;48.682;9.024;2022-10-15T12:46:56;96054.53;;;15.49;88.08
4012;BME280;2020;48.682;9.024;2022-10-15T12:51:51;96044.06;;;15.63;85.79
4012;BME280;2020;48.682;9.024;2022-10-15T12:54:36;96042.88;;;15.72;87.01
4012;BME280;2020;48.682;9.024;2022-10-15T12:59:57;96044.53;;;15.87;85.53
4012;BME280;2020;48.682;9.024;2022-10-15T13:04:57;96036.50;;;15.95;84.84
4012;BME280;2020;48.682;9.024;2022-10-15T13:07:23;96034.03;;;15.87;83.61
4012;BME280;2020;48.682;9.024;2022-10-15T13:09:48;96037.66;;;15.86;84.72
4012;BME280;2020;48.682;9.024;2022-10-15T13:12:24;96032.41;;;15.86;84.97
4012;BME280;2020;48.682;9.024;2022-10-15T13:14:55;96042.50;;;15.75;86.59
4012;BME280;2020;48.682;9.024;2022-10-15T13:17:21;96039.47;;;15.78;87.77
4012;BME280;2020;48.682;9.024;2022-10-15T13:20:06;96047.31;;;15.72;87.58
4012;BME280;2020;48.682;9.024;2022-10-15T13:22:34;96043.28;;;15.69;88.89
4012;BME280;2020;48.682;9.024;2022-10-15T13:24:59;96048.09;;;15.59;88.16
4012;BME280;2020;48.682;9.024;2022-10-15T13:27:35;96044.88;;;15.57;90.27
4012;BME280;2020;48.682;9.024;2022-10-15T13:30:06;96041.59;;;15.48;89.17
4012;BME280;2020;48.682;9.024;2022-10-15T13:32:41;96035.56;;;15.47;91.19
4012;BME280;2020;48.682;9.024;2022-10-15T13:35:11;96047.28;;;15.52;94.24
4012;BME280;2020;48.682;9.024;2022-10-15T13:37:37;96047.44;;;15.43;94.25
4012;BME280;2020;48.682;9.024;2022-10-15T13:40:05;96044.44;;;15.46;94.86
4012;BME280;2020;48.682;9.024;2022-10-15T13:42:30;96039.31;;;15.25;94.36
4012;BME280;2020;48.682;9.024;2022-10-15T13:45:17;96043.91;;;15.23;95.47
4012;BME280;2020;48.682;9.024;2022-10-15T13:47:48;96040.69;;;15.20;94.68
4012;BME280;2020;48.682;9.024;2022-10-15T13:50:25;96037.03;;;15.21;97.20
4012;BME280;2020;48.682;9.024;2022-10-15T13:55:32;96035.38;;;15.07;93.92
4012;BME280;2020;48.682;9.024;2022-10-15T14:00:42;96060.56;;;15.08;92.43
4012;BME280;2020;48.682;9.024;2022-10-15T14:03:27;96055.94;;;15.03;92.40
4012;BME280;2020;48.682;9.024;2022-10-15T14:05:54;96049.47;;;15.06;92.42
4012;BME280;2020;48.682;9.024;2022-10-15T14:08:33;96054.34;;;15.09;92.43
4012;BME280;2020;48.682;9.024;2022-10-15T14:11:02;96045.69;;;15.15;91.76
4012;BME280;2020;48.682;9.024;2022-10-15T14:13:27;96046.53;;;15.23;92.44
4012;BME280;2020;48.682;9.024;2022-10-15T14:18:41;96046.78;;;15.28;92.39
4012;BME280;2020;48.682;9.024;2022-10-15T14:21:12;96045.31;;;15.18;90.97
4012;BME280;2020;48.682;9.024;2022-10-15T14:23:39;96046.78;;;15.28;90.54
4012;BME280;2020;48.682;9.024;2022-10-15T14:26:05;96044.38;;;15.33;91.20
4012;BME280;2020;48.682;9.024;2022-10-15T14:28:32;96038.31;;;15.32;90.84
4012;BME280;2020;48.682;9.024;2022-10-15T14:30:59;96050.41;;;15.33;88.92
4012;BME280;2020;48.682;9.024;2022-10-15T14:33:28;96052.06;;;15.41;90.37
4012;BME280;2020;48.682;9.024;2022-10-15T14:36:08;96054.91;;;15.46;89.36
4012;BME280;2020;48.682;9.024;2022-10-15T14:38:34;96049.69;;;15.46;88.15
4012;BME280;2020;48.682;9.024;2022-10-15T14:41:03;96047.84;;;15.47;88.60